Terminal Aerodrome Forecast
Issued by NWS

Home | Current Version | Previous Version | Text Only | Print | Product List | Glossary On
Versions: 1 2 3 4 5 6 7 8 9 10 11 12 13 14 15 16 17 18
290
FTUS43 KPAH 191140
TAFCGI
TAF
KCGI 191140Z 1912/2012 00000KT 5SM BR MIFG FEW060
     FM191500 00000KT 6SM BR SCT035
     FM191700 22005KT P6SM SCT050
     FM200000 18003KT P6SM SKC=

USA.gov is the U.S. government's official web portal to all federal, state and local government web resources and services.